createdAt,value
2017-05-14T00:42:52.881Z,50.28
2017-05-14T00:45:23.100Z,48.18
2017-05-14T00:47:52.574Z,50.03
2017-05-14T00:50:21.776Z,53.62
2017-05-14T00:52:51.289Z,53.90
2017-05-14T00:55:20.475Z,56.00
2017-05-14T00:57:49.673Z,53.56
2017-05-14T01:00:18.870Z,53.18
2017-05-14T01:02:48.633Z,53.66
2017-05-14T01:05:18.100Z,52.22
2017-05-14T01:07:48.606Z,51.80
2017-05-14T01:10:17.788Z,53.62
2017-05-14T01:12:47.283Z,56.48
2017-05-14T01:15:16.799Z,57.40
2017-05-14T01:17:46.288Z,62.47
2017-05-14T01:20:15.791Z,54.67
2017-05-14T01:22:45.540Z,52.25
2017-05-14T01:25:14.733Z,57.92
2017-05-14T01:27:43.991Z,55.76
2017-05-14T01:30:13.536Z,55.52
2017-05-14T01:32:42.661Z,56.62
2017-05-14T01:35:11.508Z,57.00
2017-05-14T01:37:41.275Z,54.43
2017-05-14T01:40:10.412Z,55.33
2017-05-14T01:42:39.626Z,61.58
2017-05-14T01:45:09.096Z,57.10
2017-05-14T01:47:39.297Z,57.15
2017-05-14T01:50:08.821Z,55.75
2017-05-14T01:52:38.314Z,55.50
2017-05-14T01:55:07.795Z,56.50
2017-05-14T01:57:37.618Z,53.42
2017-05-14T02:00:07.103Z,53.97
2017-05-14T02:02:36.577Z,52.77
2017-05-14T02:05:05.813Z,54.14
2017-05-14T02:07:35.030Z,53.30
2017-05-14T02:10:04.964Z,55.80
2017-05-14T02:12:34.436Z,55.78
2017-05-14T02:15:04.220Z,54.02
2017-05-14T02:17:33.708Z,54.55
2017-05-14T02:20:03.175Z,56.88
2017-05-14T02:22:33.008Z,58.83
2017-05-14T02:25:02.479Z,58.82
2017-05-14T02:27:31.976Z,55.33
2017-05-14T02:30:01.196Z,56.05
2017-05-14T02:32:30.679Z,57.10
2017-05-14T02:35:00.984Z,58.62
2017-05-14T02:37:30.181Z,57.98
2017-05-14T02:39:59.378Z,57.82
2017-05-14T02:42:28.929Z,61.84
2017-05-14T02:44:58.405Z,60.52
2017-05-14T02:47:27.907Z,58.10
2017-05-14T02:49:57.431Z,60.57
2017-05-14T02:52:26.782Z,59.00
2017-05-14T02:54:56.389Z,57.74
2017-05-14T02:57:25.971Z,59.00
2017-05-14T02:59:55.497Z,60.43
2017-05-14T03:02:24.733Z,59.68
2017-05-14T03:04:54.117Z,57.42
2017-05-14T03:07:23.716Z,54.96
2017-05-14T03:09:53.203Z,53.40
2017-05-14T03:12:22.706Z,53.73
2017-05-14T03:14:51.926Z,56.62
2017-05-14T03:17:21.126Z,53.52
2017-05-14T03:19:51.624Z,52.30
2017-05-14T03:22:20.828Z,55.80
2017-05-14T03:24:50.038Z,52.32
2017-05-14T03:27:19.633Z,50.68
2017-05-14T03:29:49.112Z,50.27
2017-05-14T03:32:18.586Z,52.15
2017-05-14T03:34:47.792Z,51.00
2017-05-14T03:37:17.249Z,49.53
2017-05-14T03:39:48.110Z,48.43
2017-05-14T03:42:17.588Z,50.30
2017-05-14T03:44:47.094Z,48.42
2017-05-14T03:47:16.297Z,52.04
2017-05-14T03:49:45.489Z,48.52
2017-05-14T03:52:14.999Z,47.36
2017-05-14T03:54:44.480Z,47.15
2017-05-14T03:57:14.707Z,47.70
2017-05-14T03:59:44.195Z,48.05
2017-05-14T04:02:13.656Z,46.03
2017-05-14T04:04:43.183Z,47.10
2017-05-14T04:07:12.377Z,48.68
2017-05-14T04:09:41.570Z,48.40
2017-05-14T04:12:11.800Z,46.78
2017-05-14T04:14:41.011Z,44.90
2017-05-14T04:17:10.498Z,42.42
2017-05-14T04:19:39.979Z,42.82
2017-05-14T04:22:10.178Z,42.22
2017-05-14T04:24:40.675Z,41.55
2017-05-14T04:27:10.147Z,39.77
2017-05-14T04:29:39.612Z,40.33
2017-05-14T04:32:09.110Z,40.58
2017-05-14T04:34:38.309Z,43.08
2017-05-14T04:37:07.487Z,42.78
2017-05-14T04:39:37.081Z,40.56
2017-05-14T04:42:06.540Z,43.30
2017-05-14T04:44:36.038Z,43.63
2017-05-14T04:47:05.528Z,40.45
2017-05-14T04:49:34.994Z,41.96
2017-05-14T04:52:04.516Z,40.58
2017-05-14T04:54:34.017Z,38.30
2017-05-14T04:57:03.504Z,35.97
2017-05-14T04:59:32.992Z,38.02
2017-05-14T05:02:02.192Z,36.84
2017-05-14T05:04:31.409Z,34.00
2017-05-14T05:07:00.603Z,35.82
2017-05-14T05:09:30.344Z,35.08
2017-05-14T05:11:59.819Z,33.33
2017-05-14T05:14:29.294Z,33.13
2017-05-14T05:16:59.082Z,33.77
2017-05-14T05:19:28.075Z,31.46
2017-05-14T05:21:57.265Z,31.57
2017-05-14T05:24:27.065Z,30.62
2017-05-14T05:26:56.519Z,29.88
2017-05-14T05:29:25.997Z,30.85
2017-05-14T05:31:56.544Z,29.52
2017-05-14T05:34:26.004Z,29.82
2017-05-14T05:36:55.205Z,29.66
2017-05-14T05:39:24.879Z,29.92
2017-05-14T05:41:54.364Z,30.20
2017-05-14T05:44:23.848Z,30.58
2017-05-14T05:46:54.076Z,30.00
2017-05-14T05:49:23.553Z,29.52
2017-05-14T05:54:32.190Z,31.73
2017-05-14T05:57:00.486Z,31.93
2017-05-14T05:59:28.758Z,30.67
2017-05-14T06:01:57.489Z,29.25
2017-05-14T06:04:25.805Z,31.20
2017-05-14T06:06:54.116Z,30.37
2017-05-14T06:09:22.729Z,30.92
2017-05-14T06:11:51.019Z,31.47
2017-05-14T06:14:19.608Z,31.80
2017-05-14T06:16:48.983Z,31.05
2017-05-14T06:19:17.258Z,32.57
2017-05-14T06:21:45.564Z,30.63
2017-05-14T06:24:14.160Z,28.90
2017-05-14T06:26:42.442Z,29.78
2017-05-14T06:29:10.764Z,30.15
2017-05-14T06:31:39.326Z,30.20
2017-05-14T06:34:07.601Z,30.83
2017-05-14T06:36:35.927Z,29.48
2017-05-14T06:39:04.492Z,31.12
2017-05-14T06:41:33.529Z,31.30
2017-05-14T06:44:01.815Z,30.35
2017-05-14T06:46:31.171Z,30.05
2017-05-14T06:48:59.452Z,31.28
2017-05-14T06:51:27.749Z,31.60
2017-05-14T06:53:56.346Z,30.45
2017-05-14T06:56:24.694Z,30.47
2017-05-14T06:58:52.984Z,30.77
2017-05-14T07:01:21.686Z,30.00
2017-05-14T07:03:51.025Z,31.28
2017-05-14T07:06:19.328Z,30.32
2017-05-14T07:08:48.722Z,41.08
2017-05-14T07:11:17.743Z,33.58
2017-05-14T07:13:46.052Z,32.40
2017-05-14T07:16:14.706Z,43.72
2017-05-14T07:18:43.153Z,44.74
2017-05-14T07:21:11.443Z,32.84
2017-05-14T07:23:40.101Z,32.34
2017-05-14T07:26:08.423Z,32.50
2017-05-14T07:28:36.696Z,31.78
2017-05-14T07:31:05.303Z,31.53
2017-05-14T07:33:33.613Z,30.43
2017-05-14T07:36:01.904Z,28.38
2017-05-14T07:38:30.594Z,29.18
2017-05-14T07:40:58.881Z,28.88
2017-05-14T07:43:27.917Z,27.02
2017-05-14T07:45:56.528Z,27.40
2017-05-14T07:48:25.580Z,25.78
2017-05-14T07:50:53.876Z,28.72
2017-05-14T07:53:22.521Z,23.75
2017-05-14T07:55:51.537Z,22.72
2017-05-14T07:58:19.845Z,20.92
2017-05-14T08:00:49.175Z,20.13
2017-05-14T08:03:17.487Z,19.02
2017-05-14T08:05:45.798Z,15.10
2017-05-14T08:08:14.121Z,17.07
2017-05-14T08:10:42.403Z,16.02
2017-05-14T08:13:11.447Z,15.80
2017-05-14T08:15:39.743Z,17.42
2017-05-14T08:18:08.437Z,17.20
2017-05-14T08:20:36.812Z,15.87
2017-05-14T08:23:05.121Z,16.30
2017-05-14T08:25:33.438Z,14.62
2017-05-14T08:28:01.790Z,15.08
2017-05-14T08:30:30.119Z,13.57
2017-05-14T08:32:59.153Z,11.42
2017-05-14T08:35:27.444Z,9.50
2017-05-14T08:37:55.719Z,10.80
2017-05-14T08:40:24.035Z,8.45
2017-05-14T08:42:52.406Z,8.30
2017-05-14T08:45:21.144Z,7.97
2017-05-14T08:47:49.431Z,6.93
2017-05-14T08:50:17.699Z,7.50
2017-05-14T08:52:46.046Z,7.40
2017-05-14T08:55:14.371Z,6.83
2017-05-14T08:57:43.444Z,6.77
2017-05-14T09:00:11.747Z,7.63
2017-05-14T09:02:40.372Z,8.10
2017-05-14T09:05:08.678Z,8.10
2017-05-14T09:07:36.963Z,7.43
2017-05-14T09:10:05.252Z,7.03
2017-05-14T09:12:33.527Z,7.60
2017-05-14T09:15:02.108Z,7.57
2017-05-14T09:17:30.417Z,12.68
2017-05-14T09:19:58.697Z,9.03
2017-05-14T09:22:26.988Z,7.85
2017-05-14T09:24:55.288Z,7.80
2017-05-14T09:27:23.872Z,7.42
2017-05-14T09:29:52.156Z,6.10
2017-05-14T09:32:20.836Z,6.15
2017-05-14T09:34:49.948Z,6.63
2017-05-14T09:37:18.246Z,6.40
2017-05-14T09:39:46.527Z,5.90
2017-05-14T09:42:14.816Z,5.60
2017-05-14T09:44:43.121Z,6.63
2017-05-14T09:47:11.397Z,6.90
2017-05-14T09:49:39.674Z,7.30
2017-05-14T09:52:07.951Z,8.08
2017-05-14T09:54:37.265Z,6.95
2017-05-14T09:57:05.600Z,6.78
2017-05-14T09:59:33.912Z,6.25
2017-05-14T10:02:02.247Z,6.65
2017-05-14T10:04:30.538Z,7.03
2017-05-14T10:06:58.918Z,6.80
2017-05-14T10:09:27.215Z,7.17
2017-05-14T10:11:55.563Z,7.50
2017-05-14T10:14:24.607Z,7.33
2017-05-14T10:16:53.794Z,6.70
2017-05-14T10:19:22.091Z,6.27
2017-05-14T10:21:51.138Z,8.00
2017-05-14T10:24:19.419Z,9.90
2017-05-14T10:26:48.573Z,6.95
2017-05-14T10:29:17.021Z,7.07
2017-05-14T10:31:45.314Z,6.60
2017-05-14T10:34:13.611Z,5.10
2017-05-14T10:36:41.141Z,5.68
2017-05-14T10:39:10.200Z,5.10
2017-05-14T10:41:38.483Z,4.67
2017-05-14T10:44:06.759Z,4.36
2017-05-14T10:46:35.091Z,3.60
2017-05-14T10:49:03.765Z,3.30
2017-05-14T10:51:32.040Z,3.00
2017-05-14T10:54:00.355Z,3.60
2017-05-14T10:56:28.938Z,4.37
2017-05-14T10:58:57.223Z,3.88
2017-05-14T11:01:26.237Z,3.50
2017-05-14T11:03:54.518Z,2.85
2017-05-14T11:06:22.824Z,3.33
2017-05-14T11:08:51.113Z,2.95
2017-05-14T11:11:19.417Z,3.87
2017-05-14T11:13:47.723Z,7.30
2017-05-14T11:16:17.451Z,3.27
2017-05-14T11:18:45.736Z,3.28
2017-05-14T11:21:14.781Z,3.86
2017-05-14T11:23:43.095Z,4.20
2017-05-14T11:26:11.434Z,4.32
2017-05-14T11:28:39.710Z,4.75
2017-05-14T11:31:08.002Z,5.10
2017-05-14T11:33:36.983Z,6.58
2017-05-14T11:36:05.278Z,5.70
2017-05-14T11:38:33.583Z,5.52
2017-05-14T11:41:01.868Z,5.80
2017-05-14T11:43:30.174Z,5.75
2017-05-14T11:45:58.494Z,5.80
2017-05-14T11:48:29.078Z,6.68
2017-05-14T11:50:58.106Z,6.92
2017-05-14T11:53:26.727Z,7.90
2017-05-14T11:55:55.080Z,8.22
2017-05-14T11:58:23.394Z,8.90
2017-05-14T12:00:52.048Z,7.63
2017-05-14T12:03:20.380Z,6.63
2017-05-14T12:05:48.695Z,4.60
2017-05-14T12:08:17.304Z,5.08
2017-05-14T12:10:45.595Z,6.05
2017-05-14T12:13:13.920Z,5.47
2017-05-14T12:15:42.492Z,5.82
2017-05-14T12:18:10.778Z,5.68
2017-05-14T12:20:39.787Z,4.74
2017-05-14T12:23:08.340Z,4.82
2017-05-14T12:25:36.640Z,5.00
2017-05-14T12:28:04.993Z,5.00
2017-05-14T12:30:33.564Z,5.10
2017-05-14T12:33:01.851Z,5.10
2017-05-14T12:35:30.145Z,4.80
2017-05-14T12:37:58.774Z,4.42
2017-05-14T12:40:27.096Z,4.70
2017-05-14T12:42:55.399Z,5.20
2017-05-14T12:45:24.087Z,5.70
2017-05-14T12:47:52.367Z,5.08
2017-05-14T12:50:20.679Z,4.85
2017-05-14T12:52:49.398Z,7.52
2017-05-14T12:55:18.407Z,5.38
2017-05-14T12:57:46.679Z,6.68
2017-05-14T13:00:15.280Z,7.47
2017-05-14T13:02:43.557Z,7.08
2017-05-14T13:05:11.828Z,7.55
2017-05-14T13:07:40.459Z,8.22
2017-05-14T13:10:08.787Z,8.02
2017-05-14T13:12:37.093Z,7.95
2017-05-14T13:15:05.776Z,7.98
2017-05-14T13:17:34.075Z,8.55
2017-05-14T13:20:02.364Z,7.87
2017-05-14T13:22:30.971Z,8.70
2017-05-14T13:25:00.004Z,8.27
2017-05-14T13:27:28.288Z,8.43
2017-05-14T13:29:56.975Z,8.77
2017-05-14T13:32:25.819Z,8.55
2017-05-14T13:34:54.112Z,7.80
2017-05-14T13:37:22.724Z,10.25
2017-05-14T13:39:51.060Z,10.15
2017-05-14T13:42:19.379Z,8.50
2017-05-14T13:44:48.047Z,9.07
2017-05-14T13:47:16.364Z,8.43
2017-05-14T13:49:44.662Z,8.70
2017-05-14T13:52:13.368Z,8.33
2017-05-14T13:54:41.677Z,8.78
2017-05-14T13:57:09.968Z,8.68
2017-05-14T13:59:38.829Z,8.55
2017-05-14T14:02:07.111Z,8.20
2017-05-14T14:04:36.211Z,8.22
2017-05-14T14:07:05.604Z,8.55
2017-05-14T14:09:34.630Z,8.77
2017-05-14T14:12:02.921Z,9.02
2017-05-14T14:14:31.595Z,9.13
2017-05-14T14:16:59.880Z,8.77
2017-05-14T14:19:28.184Z,9.10
2017-05-14T14:21:56.869Z,9.27
2017-05-14T14:24:25.162Z,9.35
2017-05-14T14:26:54.219Z,8.90
2017-05-14T14:29:22.817Z,8.45
2017-05-14T14:31:51.137Z,9.02
2017-05-14T14:34:19.439Z,8.57
2017-05-14T14:36:48.755Z,9.20
2017-05-14T14:39:17.071Z,9.28
2017-05-14T14:41:45.360Z,10.07
2017-05-14T14:44:13.938Z,9.60
2017-05-14T14:46:42.215Z,8.68
2017-05-14T14:49:10.487Z,8.50
2017-05-14T14:51:39.080Z,8.46
2017-05-14T14:54:07.379Z,7.90
2017-05-14T14:56:36.403Z,7.83
2017-05-14T14:59:04.984Z,7.68
2017-05-14T15:01:33.268Z,7.80
2017-05-14T15:04:02.285Z,7.30
2017-05-14T15:06:30.893Z,7.20
2017-05-14T15:08:59.188Z,6.86
2017-05-14T15:11:28.434Z,6.52
2017-05-14T15:13:57.108Z,5.84
2017-05-14T15:16:25.401Z,5.85
2017-05-14T15:18:54.419Z,5.90
2017-05-14T15:21:23.003Z,5.88
2017-05-14T15:23:51.276Z,5.90
2017-05-14T15:26:19.556Z,6.40
2017-05-14T15:28:48.143Z,7.38
2017-05-14T15:31:17.173Z,7.75
2017-05-14T15:33:45.568Z,7.78
2017-05-14T15:36:14.223Z,9.00
2017-05-14T15:38:42.510Z,9.75
2017-05-14T15:41:11.539Z,10.17
2017-05-14T15:43:40.127Z,14.18
2017-05-14T15:46:08.409Z,11.80
2017-05-14T15:48:37.445Z,10.58
2017-05-14T15:51:06.025Z,10.47
2017-05-14T15:53:34.312Z,10.88
2017-05-14T15:56:02.588Z,11.30
2017-05-14T15:58:31.937Z,12.40
2017-05-14T16:01:00.219Z,11.80
2017-05-14T16:03:28.524Z,11.60
2017-05-14T16:05:57.143Z,12.75
2017-05-14T16:08:25.427Z,12.74
2017-05-14T16:10:53.715Z,12.64
2017-05-14T16:13:22.335Z,12.22
2017-05-14T16:15:50.627Z,12.37
2017-05-14T16:18:18.927Z,12.42
2017-05-14T16:20:47.628Z,12.57
2017-05-14T16:23:15.932Z,13.45
2017-05-14T16:25:46.701Z,13.00
2017-05-14T16:28:15.384Z,12.02
2017-05-14T16:30:43.713Z,13.25
2017-05-14T16:33:11.994Z,12.90
2017-05-14T16:35:40.672Z,12.35
2017-05-14T16:38:09.015Z,12.73
2017-05-14T16:40:37.325Z,13.00
2017-05-14T16:43:05.963Z,13.32
2017-05-14T16:45:34.248Z,13.40
2017-05-14T16:48:02.548Z,12.85
2017-05-14T16:50:31.150Z,13.17
2017-05-14T16:52:59.427Z,14.00
2017-05-14T16:55:28.472Z,13.42
2017-05-14T16:57:57.062Z,13.47
2017-05-14T17:00:25.359Z,14.20
2017-05-14T17:02:53.654Z,13.90
2017-05-14T17:05:22.268Z,13.88
2017-05-14T17:07:51.331Z,13.67
2017-05-14T17:10:20.571Z,13.85
2017-05-14T17:12:49.283Z,14.20
2017-05-14T17:15:17.567Z,13.72
2017-05-14T17:17:46.592Z,13.30
2017-05-14T17:20:15.209Z,13.22
2017-05-14T17:22:43.500Z,12.70
2017-05-14T17:25:11.779Z,12.00
2017-05-14T17:27:40.434Z,12.26
2017-05-14T17:30:10.711Z,11.32
2017-05-14T17:32:39.154Z,11.80
2017-05-14T17:35:07.719Z,11.68
2017-05-14T17:37:36.010Z,12.20
2017-05-14T17:40:05.036Z,12.20
2017-05-14T17:42:33.647Z,11.73
2017-05-14T17:45:01.948Z,11.47
2017-05-14T17:47:30.242Z,11.67
2017-05-14T17:49:58.928Z,11.83
2017-05-14T17:52:27.211Z,11.18
2017-05-14T17:54:55.504Z,12.53
2017-05-14T17:57:24.114Z,12.45
2017-05-14T17:59:52.423Z,12.88
2017-05-14T18:02:20.732Z,12.20
2017-05-14T18:04:49.303Z,12.02
2017-05-14T18:07:17.588Z,12.40
2017-05-14T18:09:46.600Z,12.60
2017-05-14T18:12:15.211Z,12.90
2017-05-14T18:14:43.493Z,15.40
2017-05-14T18:17:12.040Z,17.17
2017-05-14T18:19:40.699Z,13.67
2017-05-14T18:22:08.974Z,12.90
2017-05-14T18:24:37.268Z,14.17
2017-05-14T18:27:06.691Z,13.92
2017-05-14T18:29:34.995Z,14.63
2017-05-14T18:32:03.345Z,13.05
2017-05-14T18:34:31.896Z,13.78
2017-05-14T18:37:00.171Z,12.38
2017-05-14T18:39:28.457Z,12.13
2017-05-14T18:41:57.818Z,12.10
2017-05-14T18:44:26.119Z,12.27
2017-05-14T18:46:55.139Z,11.58
2017-05-14T18:49:23.724Z,11.72
2017-05-14T18:51:52.010Z,13.73
2017-05-14T18:54:21.304Z,13.63
2017-05-14T18:56:50.628Z,14.32
2017-05-14T18:59:18.907Z,14.17
2017-05-14T19:01:47.184Z,14.96
2017-05-14T19:04:15.778Z,14.80
2017-05-14T19:06:45.835Z,15.43
2017-05-14T19:09:14.126Z,16.40
2017-05-14T19:11:42.730Z,16.82
2017-05-14T19:14:11.067Z,17.42
2017-05-14T19:16:40.082Z,16.88
2017-05-14T19:19:08.685Z,15.88
2017-05-14T19:21:36.975Z,15.82
2017-05-14T19:24:05.991Z,16.10
2017-05-14T19:26:34.594Z,17.18
2017-05-14T19:29:02.879Z,16.93
2017-05-14T19:31:31.921Z,18.13
2017-05-14T19:34:00.655Z,18.06
2017-05-14T19:36:28.971Z,17.97
2017-05-14T19:38:57.257Z,20.22
2017-05-14T19:41:26.627Z,20.35
2017-05-14T19:43:54.930Z,19.57
2017-05-14T19:46:23.211Z,18.70
2017-05-14T19:48:51.854Z,18.95
2017-05-14T19:51:20.130Z,19.17
2017-05-14T19:53:48.424Z,18.53
2017-05-14T19:56:17.107Z,19.37
2017-05-14T19:58:45.466Z,20.94
2017-05-14T20:01:13.746Z,20.62
2017-05-14T20:03:42.429Z,20.18
2017-05-14T20:06:11.463Z,19.85
2017-05-14T20:08:39.739Z,21.08
2017-05-14T20:11:08.454Z,21.05
2017-05-14T20:13:36.747Z,21.77
2017-05-14T20:16:05.033Z,20.70
2017-05-14T20:18:33.695Z,20.65
2017-05-14T20:21:01.970Z,20.90
2017-05-14T20:23:30.257Z,21.38
2017-05-14T20:25:59.603Z,22.13
2017-05-14T20:28:27.881Z,22.00
2017-05-14T20:30:56.161Z,21.67
2017-05-14T20:33:25.515Z,22.83
2017-05-14T20:35:53.817Z,21.76
2017-05-14T20:38:22.295Z,22.53
2017-05-14T20:40:50.608Z,23.34
2017-05-14T20:43:18.901Z,24.58
2017-05-14T20:45:47.931Z,23.80
2017-05-14T20:48:16.228Z,23.98
2017-05-14T20:50:44.879Z,24.32
2017-05-14T20:53:13.150Z,26.47
2017-05-14T20:55:41.579Z,26.76
2017-05-14T20:58:09.863Z,25.73
2017-05-14T21:00:38.134Z,27.28
2017-05-14T21:03:06.718Z,26.65
2017-05-14T21:05:35.742Z,26.28
2017-05-14T21:08:04.051Z,24.77
2017-05-14T21:10:32.714Z,24.55
2017-05-14T21:13:00.999Z,25.03
2017-05-14T21:15:30.023Z,24.75
2017-05-14T21:17:58.592Z,25.98
2017-05-14T21:20:26.870Z,25.40
2017-05-14T21:22:55.168Z,25.52
2017-05-14T21:25:23.799Z,26.65
2017-05-14T21:27:52.074Z,26.08
2017-05-14T21:30:20.350Z,25.37
2017-05-14T21:32:49.706Z,25.40
2017-05-14T21:35:17.994Z,25.18
2017-05-14T21:37:47.023Z,26.57
2017-05-14T21:40:15.583Z,27.10
2017-05-14T21:42:43.859Z,28.35
2017-05-14T21:45:12.149Z,27.10
2017-05-14T21:47:40.730Z,27.55
2017-05-14T21:50:09.772Z,27.16
2017-05-14T21:52:38.070Z,27.28
2017-05-14T21:55:07.423Z,26.37
2017-05-14T21:57:35.759Z,27.82
2017-05-14T22:00:04.040Z,28.38
2017-05-14T22:02:32.617Z,28.43
2017-05-14T22:05:00.893Z,29.06
2017-05-14T22:07:29.175Z,30.00
2017-05-14T22:09:58.547Z,30.02
2017-05-14T22:12:26.825Z,29.36
2017-05-14T22:14:55.861Z,32.30
2017-05-14T22:17:24.531Z,31.77
2017-05-14T22:19:52.807Z,31.05
2017-05-14T22:22:21.080Z,29.33
2017-05-14T22:24:49.657Z,29.52
2017-05-14T22:27:18.677Z,30.70
2017-05-14T22:29:46.973Z,29.34
2017-05-14T22:32:15.656Z,28.98
2017-05-14T22:34:43.952Z,30.27
2017-05-14T22:37:12.248Z,30.87
2017-05-14T22:39:40.815Z,30.72
2017-05-14T22:42:09.092Z,29.17
2017-05-14T22:44:37.376Z,28.23
2017-05-14T22:47:06.735Z,31.40
2017-05-14T22:49:35.011Z,29.72
2017-05-14T22:52:03.298Z,28.78
2017-05-14T22:54:32.654Z,30.07
2017-05-14T22:57:00.928Z,30.53
2017-05-14T22:59:29.205Z,30.00
2017-05-14T23:01:58.505Z,30.05
2017-05-14T23:04:26.787Z,30.67
2017-05-14T23:06:55.070Z,29.30
2017-05-14T23:09:23.638Z,31.35
2017-05-14T23:11:51.915Z,31.26
2017-05-14T23:14:20.195Z,32.00
2017-05-14T23:16:49.555Z,32.46
2017-05-14T23:19:17.824Z,30.64
2017-05-14T23:21:46.111Z,32.60
2017-05-14T23:24:15.428Z,31.78
2017-05-14T23:26:43.701Z,31.46
2017-05-14T23:29:11.981Z,35.46
2017-05-14T23:31:40.540Z,32.30
2017-05-14T23:34:08.814Z,34.50
2017-05-14T23:36:37.090Z,33.53
2017-05-14T23:39:06.450Z,31.75
2017-05-14T23:41:34.729Z,32.97
2017-05-14T23:44:03.011Z,32.02
2017-05-14T23:46:32.359Z,32.27
2017-05-14T23:49:00.630Z,31.53
2017-05-14T23:51:28.911Z,31.32
2017-05-14T23:53:58.280Z,29.83
2017-05-14T23:56:26.560Z,28.82
2017-05-14T23:58:55.574Z,29.48
